sensor_id;sensor_type;location;lat;lon;timestamp;temperature;humidity
31387;DHT22;69978;50.096;8.448;2023-05-14T00:00:41;11.50;99.90
31387;DHT22;69978;50.096;8.448;2023-05-14T00:03:07;11.40;99.90
31387;DHT22;69978;50.096;8.448;2023-05-14T00:05:32;11.40;99.90
31387;DHT22;69978;50.096;8.448;2023-05-14T00:07:58;11.30;99.90
31387;DHT22;69978;50.096;8.448;2023-05-14T00:10:25;11.30;99.90
31387;DHT22;69978;50.096;8.448;2023-05-14T00:12:51;11.30;99.90
31387;DHT22;69978;50.096;8.448;2023-05-14T00:15:16;11.30;99.90
31387;DHT22;69978;50.096;8.448;2023-05-14T00:17:42;11.30;99.90
31387;DHT22;69978;50.096;8.448;2023-05-14T00:20:08;11.20;99.90
31387;DHT22;69978;50.096;8.448;2023-05-14T00:22:36;11.10;99.90
31387;DHT22;69978;50.096;8.448;2023-05-14T00:25:02;11.10;99.90
31387;DHT22;69978;50.096;8.448;2023-05-14T00:27:28;11.00;99.90
31387;DHT22;69978;50.096;8.448;2023-05-14T00:29:54;11.00;99.90
31387;DHT22;69978;50.096;8.448;2023-05-14T00:32:20;10.90;99.90
31387;DHT22;69978;50.096;8.448;2023-05-14T00:34:45;10.90;99.90
31387;DHT22;69978;50.096;8.448;2023-05-14T00:37:11;10.90;99.90
31387;DHT22;69978;50.096;8.448;2023-05-14T00:39:36;10.90;99.90
31387;DHT22;69978;50.096;8.448;2023-05-14T00:42:02;10.90;99.90
31387;DHT22;69978;50.096;8.448;2023-05-14T00:44:27;10.80;99.90
31387;DHT22;69978;50.096;8.448;2023-05-14T00:46:53;10.80;99.90
31387;DHT22;69978;50.096;8.448;2023-05-14T00:49:19;10.70;99.90
31387;DHT22;69978;50.096;8.448;2023-05-14T00:51:45;10.70;99.90
31387;DHT22;69978;50.096;8.448;2023-05-14T00:54:13;10.70;99.90
31387;DHT22;69978;50.096;8.448;2023-05-14T00:56:39;10.70;99.90
31387;DHT22;69978;50.096;8.448;2023-05-14T00:59:05;10.60;99.90
31387;DHT22;69978;50.096;8.448;2023-05-14T01:01:30;10.60;99.90
31387;DHT22;69978;50.096;8.448;2023-05-14T01:03:56;10.60;99.90
31387;DHT22;69978;50.096;8.448;2023-05-14T01:09:26;10.50;99.90
31387;DHT22;69978;50.096;8.448;2023-05-14T01:12:26;10.50;99.90
31387;DHT22;69978;50.096;8.448;2023-05-14T01:15:05;10.60;99.90
31387;DHT22;69978;50.096;8.448;2023-05-14T01:17:43;10.60;99.90
31387;DHT22;69978;50.096;8.448;2023-05-14T01:20:10;10.60;99.90
31387;DHT22;69978;50.096;8.448;2023-05-14T01:22:36;10.50;99.90
31387;DHT22;69978;50.096;8.448;2023-05-14T01:25:03;10.60;99.90
31387;DHT22;69978;50.096;8.448;2023-05-14T01:27:37;10.60;99.90
31387;DHT22;69978;50.096;8.448;2023-05-14T01:30:21;10.50;99.90
31387;DHT22;69978;50.096;8.448;2023-05-14T01:32:50;10.50;99.90
31387;DHT22;69978;50.096;8.448;2023-05-14T01:35:18;10.50;99.90
31387;DHT22;69978;50.096;8.448;2023-05-14T01:37:44;10.50;99.90
31387;DHT22;69978;50.096;8.448;2023-05-14T01:40:11;10.50;99.90
31387;DHT22;69978;50.096;8.448;2023-05-14T01:42:37;10.50;99.90
31387;DHT22;69978;50.096;8.448;2023-05-14T01:45:04;10.40;99.90
31387;DHT22;69978;50.096;8.448;2023-05-14T01:47:30;10.40;99.90
31387;DHT22;69978;50.096;8.448;2023-05-14T01:49:55;10.40;99.90
31387;DHT22;69978;50.096;8.448;2023-05-14T01:52:21;10.40;99.90
31387;DHT22;69978;50.096;8.448;2023-05-14T01:54:47;10.40;99.90
31387;DHT22;69978;50.096;8.448;2023-05-14T01:57:12;10.30;99.90
31387;DHT22;69978;50.096;8.448;2023-05-14T01:59:38;10.40;99.90
31387;DHT22;69978;50.096;8.448;2023-05-14T02:02:04;10.40;99.90
31387;DHT22;69978;50.096;8.448;2023-05-14T02:04:29;10.40;99.90
31387;DHT22;69978;50.096;8.448;2023-05-14T02:06:55;10.40;99.90
31387;DHT22;69978;50.096;8.448;2023-05-14T02:09:20;10.40;99.90
31387;DHT22;69978;50.096;8.448;2023-05-14T02:11:46;10.40;99.90
31387;DHT22;69978;50.096;8.448;2023-05-14T02:14:12;10.30;99.90
31387;DHT22;69978;50.096;8.448;2023-05-14T02:16:39;10.30;99.90
31387;DHT22;69978;50.096;8.448;2023-05-14T02:19:04;10.30;99.90
31387;DHT22;69978;50.096;8.448;2023-05-14T02:21:30;10.30;99.90
31387;DHT22;69978;50.096;8.448;2023-05-14T02:23:56;10.20;99.90
31387;DHT22;69978;50.096;8.448;2023-05-14T02:26:22;10.20;99.90
31387;DHT22;69978;50.096;8.448;2023-05-14T02:28:47;10.20;99.90
31387;DHT22;69978;50.096;8.448;2023-05-14T02:31:13;10.10;99.90
31387;DHT22;69978;50.096;8.448;2023-05-14T02:33:38;10.10;99.90
31387;DHT22;69978;50.096;8.448;2023-05-14T02:36:04;10.00;99.90
31387;DHT22;69978;50.096;8.448;2023-05-14T02:38:30;10.00;99.90
31387;DHT22;69978;50.096;8.448;2023-05-14T02:40:55;10.10;99.90
31387;DHT22;69978;50.096;8.448;2023-05-14T02:43:21;10.10;99.90
31387;DHT22;69978;50.096;8.448;2023-05-14T02:45:46;10.10;99.90
31387;DHT22;69978;50.096;8.448;2023-05-14T02:48:12;10.10;99.90
31387;DHT22;69978;50.096;8.448;2023-05-14T02:50:37;10.00;99.90
31387;DHT22;69978;50.096;8.448;2023-05-14T02:53:03;10.00;99.90
31387;DHT22;69978;50.096;8.448;2023-05-14T02:55:29;10.00;99.90
31387;DHT22;69978;50.096;8.448;2023-05-14T02:57:54;10.00;99.90
31387;DHT22;69978;50.096;8.448;2023-05-14T03:00:21;10.10;99.90
31387;DHT22;69978;50.096;8.448;2023-05-14T03:02:46;10.10;99.90
31387;DHT22;69978;50.096;8.448;2023-05-14T03:05:12;10.10;99.90
31387;DHT22;69978;50.096;8.448;2023-05-14T03:07:37;10.10;99.90
31387;DHT22;69978;50.096;8.448;2023-05-14T03:10:03;10.10;99.90
31387;DHT22;69978;50.096;8.448;2023-05-14T03:12:30;10.10;99.90
31387;DHT22;69978;50.096;8.448;2023-05-14T03:14:55;10.10;99.90
31387;DHT22;69978;50.096;8.448;2023-05-14T03:17:21;10.10;99.90
31387;DHT22;69978;50.096;8.448;2023-05-14T03:19:46;10.10;99.90
31387;DHT22;69978;50.096;8.448;2023-05-14T03:22:12;10.10;99.90
31387;DHT22;69978;50.096;8.448;2023-05-14T03:24:38;10.10;99.90
31387;DHT22;69978;50.096;8.448;2023-05-14T03:27:05;10.10;99.90
31387;DHT22;69978;50.096;8.448;2023-05-14T03:29:30;10.00;99.90
31387;DHT22;69978;50.096;8.448;2023-05-14T03:31:56;9.90;99.90
31387;DHT22;69978;50.096;8.448;2023-05-14T03:34:21;9.90;99.90
31387;DHT22;69978;50.096;8.448;2023-05-14T03:36:47;9.90;99.90
31387;DHT22;69978;50.096;8.448;2023-05-14T03:39:12;9.80;99.90
31387;DHT22;69978;50.096;8.448;2023-05-14T03:41:46;9.80;99.90
31387;DHT22;69978;50.096;8.448;2023-05-14T03:44:12;9.70;99.90
31387;DHT22;69978;50.096;8.448;2023-05-14T03:46:38;9.70;99.90
31387;DHT22;69978;50.096;8.448;2023-05-14T03:49:04;9.70;99.90
31387;DHT22;69978;50.096;8.448;2023-05-14T03:51:30;9.60;99.90
31387;DHT22;69978;50.096;8.448;2023-05-14T03:53:56;9.60;99.90
31387;DHT22;69978;50.096;8.448;2023-05-14T03:56:23;9.60;99.90
31387;DHT22;69978;50.096;8.448;2023-05-14T03:58:48;9.60;99.90
31387;DHT22;69978;50.096;8.448;2023-05-14T04:01:14;9.60;99.90
31387;DHT22;69978;50.096;8.448;2023-05-14T04:03:39;9.60;99.90
31387;DHT22;69978;50.096;8.448;2023-05-14T04:06:05;9.50;99.90
31387;DHT22;69978;50.096;8.448;2023-05-14T04:08:31;9.50;99.90
31387;DHT22;69978;50.096;8.448;2023-05-14T04:10:56;9.50;99.90
31387;DHT22;69978;50.096;8.448;2023-05-14T04:13:22;9.40;99.90
31387;DHT22;69978;50.096;8.448;2023-05-14T04:15:47;9.40;99.90
31387;DHT22;69978;50.096;8.448;2023-05-14T04:18:13;9.40;99.90
31387;DHT22;69978;50.096;8.448;2023-05-14T04:20:38;9.40;99.90
31387;DHT22;69978;50.096;8.448;2023-05-14T04:23:05;9.50;99.90
31387;DHT22;69978;50.096;8.448;2023-05-14T04:25:30;9.50;99.90
31387;DHT22;69978;50.096;8.448;2023-05-14T04:27:56;9.50;99.90
31387;DHT22;69978;50.096;8.448;2023-05-14T04:30:22;9.50;99.90
31387;DHT22;69978;50.096;8.448;2023-05-14T04:32:48;9.50;99.90
31387;DHT22;69978;50.096;8.448;2023-05-14T04:35:14;9.50;99.90
31387;DHT22;69978;50.096;8.448;2023-05-14T04:37:39;9.50;99.90
31387;DHT22;69978;50.096;8.448;2023-05-14T04:40:07;9.50;99.90
31387;DHT22;69978;50.096;8.448;2023-05-14T04:42:33;9.50;99.90
31387;DHT22;69978;50.096;8.448;2023-05-14T04:44:58;9.50;99.90
31387;DHT22;69978;50.096;8.448;2023-05-14T04:47:24;9.60;99.90
31387;DHT22;69978;50.096;8.448;2023-05-14T04:49:50;9.60;99.90
31387;DHT22;69978;50.096;8.448;2023-05-14T04:52:16;9.60;99.90
31387;DHT22;69978;50.096;8.448;2023-05-14T04:54:41;9.70;99.90
31387;DHT22;69978;50.096;8.448;2023-05-14T04:57:07;9.70;99.90
31387;DHT22;69978;50.096;8.448;2023-05-14T04:59:33;9.80;99.90
31387;DHT22;69978;50.096;8.448;2023-05-14T05:01:58;9.90;99.90
31387;DHT22;69978;50.096;8.448;2023-05-14T05:04:24;9.90;99.90
31387;DHT22;69978;50.096;8.448;2023-05-14T05:06:50;10.00;99.90
31387;DHT22;69978;50.096;8.448;2023-05-14T05:09:17;10.00;99.90
31387;DHT22;69978;50.096;8.448;2023-05-14T05:11:42;10.10;99.90
31387;DHT22;69978;50.096;8.448;2023-05-14T05:14:08;10.20;99.90
31387;DHT22;69978;50.096;8.448;2023-05-14T05:16:33;10.30;99.90
31387;DHT22;69978;50.096;8.448;2023-05-14T05:18:59;10.30;99.90
31387;DHT22;69978;50.096;8.448;2023-05-14T05:21:25;10.30;99.90
31387;DHT22;69978;50.096;8.448;2023-05-14T05:23:50;10.40;99.90
31387;DHT22;69978;50.096;8.448;2023-05-14T05:26:16;10.40;99.90
31387;DHT22;69978;50.096;8.448;2023-05-14T05:28:41;10.50;99.90
31387;DHT22;69978;50.096;8.448;2023-05-14T05:31:07;10.50;99.90
31387;DHT22;69978;50.096;8.448;2023-05-14T05:33:33;10.60;99.90
31387;DHT22;69978;50.096;8.448;2023-05-14T05:35:59;10.80;99.90
31387;DHT22;69978;50.096;8.448;2023-05-14T05:38:25;10.90;99.90
31387;DHT22;69978;50.096;8.448;2023-05-14T05:40:51;11.00;99.90
31387;DHT22;69978;50.096;8.448;2023-05-14T05:43:17;11.00;99.90
31387;DHT22;69978;50.096;8.448;2023-05-14T05:45:43;11.00;99.90
31387;DHT22;69978;50.096;8.448;2023-05-14T05:48:10;11.10;99.90
31387;DHT22;69978;50.096;8.448;2023-05-14T05:50:35;11.10;99.90
31387;DHT22;69978;50.096;8.448;2023-05-14T05:53:01;11.20;99.90
31387;DHT22;69978;50.096;8.448;2023-05-14T05:55:27;11.30;99.90
31387;DHT22;69978;50.096;8.448;2023-05-14T05:57:53;11.40;99.90
31387;DHT22;69978;50.096;8.448;2023-05-14T06:00:19;11.40;99.90
31387;DHT22;69978;50.096;8.448;2023-05-14T06:02:45;11.50;99.90
31387;DHT22;69978;50.096;8.448;2023-05-14T06:05:11;11.50;99.90
31387;DHT22;69978;50.096;8.448;2023-05-14T06:07:37;11.60;99.90
31387;DHT22;69978;50.096;8.448;2023-05-14T06:10:03;11.70;99.90
31387;DHT22;69978;50.096;8.448;2023-05-14T06:12:29;11.70;99.90
31387;DHT22;69978;50.096;8.448;2023-05-14T06:14:55;11.70;99.90
31387;DHT22;69978;50.096;8.448;2023-05-14T06:17:22;11.70;99.90
31387;DHT22;69978;50.096;8.448;2023-05-14T06:19:48;11.80;99.90
31387;DHT22;69978;50.096;8.448;2023-05-14T06:22:14;11.90;99.90
31387;DHT22;69978;50.096;8.448;2023-05-14T06:24:39;12.20;99.90
31387;DHT22;69978;50.096;8.448;2023-05-14T06:27:05;12.30;99.90
31387;DHT22;69978;50.096;8.448;2023-05-14T06:29:31;12.40;99.90
31387;DHT22;69978;50.096;8.448;2023-05-14T06:32:00;12.50;99.90
31387;DHT22;69978;50.096;8.448;2023-05-14T06:34:26;12.70;99.90
31387;DHT22;69978;50.096;8.448;2023-05-14T06:36:52;12.90;99.90
31387;DHT22;69978;50.096;8.448;2023-05-14T06:39:17;13.10;99.90
31387;DHT22;69978;50.096;8.448;2023-05-14T06:41:43;13.30;99.90
31387;DHT22;69978;50.096;8.448;2023-05-14T06:44:08;13.60;99.90
31387;DHT22;69978;50.096;8.448;2023-05-14T06:46:34;13.80;99.90
31387;DHT22;69978;50.096;8.448;2023-05-14T06:48:59;14.00;99.90
31387;DHT22;69978;50.096;8.448;2023-05-14T06:51:25;14.20;99.90
31387;DHT22;69978;50.096;8.448;2023-05-14T06:53:51;14.30;99.90
31387;DHT22;69978;50.096;8.448;2023-05-14T06:56:19;14.40;99.90
31387;DHT22;69978;50.096;8.448;2023-05-14T06:58:46;14.60;99.90
31387;DHT22;69978;50.096;8.448;2023-05-14T07:01:11;14.80;99.90
31387;DHT22;69978;50.096;8.448;2023-05-14T07:03:37;14.80;99.90
31387;DHT22;69978;50.096;8.448;2023-05-14T07:06:02;14.90;99.90
31387;DHT22;69978;50.096;8.448;2023-05-14T07:08:28;15.00;99.90
31387;DHT22;69978;50.096;8.448;2023-05-14T07:10:54;15.10;99.90
31387;DHT22;69978;50.096;8.448;2023-05-14T07:13:20;15.20;99.90
31387;DHT22;69978;50.096;8.448;2023-05-14T07:15:46;15.40;99.90
31387;DHT22;69978;50.096;8.448;2023-05-14T07:18:11;15.50;99.90
31387;DHT22;69978;50.096;8.448;2023-05-14T07:20:37;15.70;99.90
31387;DHT22;69978;50.096;8.448;2023-05-14T07:23:02;15.80;99.90
31387;DHT22;69978;50.096;8.448;2023-05-14T07:25:28;15.80;99.90
31387;DHT22;69978;50.096;8.448;2023-05-14T07:27:57;15.70;99.90
31387;DHT22;69978;50.096;8.448;2023-05-14T07:30:25;15.60;99.90
31387;DHT22;69978;50.096;8.448;2023-05-14T07:32:51;15.50;99.90
31387;DHT22;69978;50.096;8.448;2023-05-14T07:35:17;15.50;99.90
31387;DHT22;69978;50.096;8.448;2023-05-14T07:37:46;15.50;99.90
31387;DHT22;69978;50.096;8.448;2023-05-14T07:40:11;15.50;99.90
31387;DHT22;69978;50.096;8.448;2023-05-14T07:42:37;15.50;99.90
31387;DHT22;69978;50.096;8.448;2023-05-14T07:45:03;15.50;99.90
31387;DHT22;69978;50.096;8.448;2023-05-14T07:47:29;15.50;99.90
31387;DHT22;69978;50.096;8.448;2023-05-14T07:49:58;15.60;99.90
31387;DHT22;69978;50.096;8.448;2023-05-14T07:52:24;15.60;99.90
31387;DHT22;69978;50.096;8.448;2023-05-14T07:54:50;15.60;99.90
31387;DHT22;69978;50.096;8.448;2023-05-14T07:57:16;15.70;99.90
31387;DHT22;69978;50.096;8.448;2023-05-14T07:59:42;15.80;99.90
31387;DHT22;69978;50.096;8.448;2023-05-14T08:02:08;15.90;99.90
31387;DHT22;69978;50.096;8.448;2023-05-14T08:04:35;15.90;99.90
31387;DHT22;69978;50.096;8.448;2023-05-14T08:07:01;16.00;99.90
31387;DHT22;69978;50.096;8.448;2023-05-14T08:09:26;16.10;99.90
31387;DHT22;69978;50.096;8.448;2023-05-14T08:11:52;16.20;99.90
31387;DHT22;69978;50.096;8.448;2023-05-14T08:14:17;16.20;99.90
31387;DHT22;69978;50.096;8.448;2023-05-14T08:16:43;16.30;99.90
31387;DHT22;69978;50.096;8.448;2023-05-14T08:19:09;16.40;99.90
31387;DHT22;69978;50.096;8.448;2023-05-14T08:21:34;16.50;99.90
31387;DHT22;69978;50.096;8.448;2023-05-14T08:24:00;16.60;99.90
31387;DHT22;69978;50.096;8.448;2023-05-14T08:26:28;16.90;99.90
31387;DHT22;69978;50.096;8.448;2023-05-14T08:28:54;17.00;99.90
31387;DHT22;69978;50.096;8.448;2023-05-14T08:31:19;17.20;99.90
31387;DHT22;69978;50.096;8.448;2023-05-14T08:33:45;17.40;99.90
31387;DHT22;69978;50.096;8.448;2023-05-14T08:36:13;17.60;99.90
31387;DHT22;69978;50.096;8.448;2023-05-14T08:38:38;17.90;99.90
31387;DHT22;69978;50.096;8.448;2023-05-14T08:41:05;18.10;99.90
31387;DHT22;69978;50.096;8.448;2023-05-14T08:46:13;18.70;99.90
31387;DHT22;69978;50.096;8.448;2023-05-14T08:48:41;19.00;99.90
31387;DHT22;69978;50.096;8.448;2023-05-14T08:51:07;19.30;99.90
31387;DHT22;69978;50.096;8.448;2023-05-14T08:53:33;19.70;99.90
31387;DHT22;69978;50.096;8.448;2023-05-14T08:56:00;20.00;99.90
31387;DHT22;69978;50.096;8.448;2023-05-14T08:58:26;20.20;99.90
31387;DHT22;69978;50.096;8.448;2023-05-14T09:00:55;20.50;99.90
31387;DHT22;69978;50.096;8.448;2023-05-14T09:03:23;20.80;99.90
31387;DHT22;69978;50.096;8.448;2023-05-14T09:05:52;21.10;99.90
31387;DHT22;69978;50.096;8.448;2023-05-14T09:08:18;21.30;99.90
31387;DHT22;69978;50.096;8.448;2023-05-14T09:10:44;20.90;99.90
31387;DHT22;69978;50.096;8.448;2023-05-14T09:13:10;21.00;99.90
31387;DHT22;69978;50.096;8.448;2023-05-14T09:15:36;21.50;99.90
31387;DHT22;69978;50.096;8.448;2023-05-14T09:18:06;22.30;99.90
31387;DHT22;69978;50.096;8.448;2023-05-14T09:20:32;22.60;99.90
31387;DHT22;69978;50.096;8.448;2023-05-14T09:22:58;22.80;99.90
31387;DHT22;69978;50.096;8.448;2023-05-14T09:25:30;23.00;99.90
31387;DHT22;69978;50.096;8.448;2023-05-14T09:27:56;22.80;99.90
31387;DHT22;69978;50.096;8.448;2023-05-14T09:30:26;22.70;99.90
31387;DHT22;69978;50.096;8.448;2023-05-14T09:32:53;23.20;99.90
31387;DHT22;69978;50.096;8.448;2023-05-14T09:35:21;23.60;99.90
31387;DHT22;69978;50.096;8.448;2023-05-14T09:37:50;23.90;99.90
31387;DHT22;69978;50.096;8.448;2023-05-14T09:40:17;23.80;99.90
31387;DHT22;69978;50.096;8.448;2023-05-14T09:42:43;23.70;99.90
31387;DHT22;69978;50.096;8.448;2023-05-14T09:45:10;23.50;99.90
31387;DHT22;69978;50.096;8.448;2023-05-14T09:47:36;23.40;99.90
31387;DHT22;69978;50.096;8.448;2023-05-14T09:50:03;23.00;99.90
31387;DHT22;69978;50.096;8.448;2023-05-14T09:52:32;22.80;99.90
31387;DHT22;69978;50.096;8.448;2023-05-14T09:54:59;22.70;99.90
31387;DHT22;69978;50.096;8.448;2023-05-14T09:57:28;23.10;99.90
31387;DHT22;69978;50.096;8.448;2023-05-14T09:59:54;23.30;99.90
31387;DHT22;69978;50.096;8.448;2023-05-14T10:02:25;23.60;99.90
31387;DHT22;69978;50.096;8.448;2023-05-14T10:05:03;24.10;99.90
31387;DHT22;69978;50.096;8.448;2023-05-14T10:07:36;24.40;99.90
31387;DHT22;69978;50.096;8.448;2023-05-14T10:10:06;25.70;99.90
31387;DHT22;69978;50.096;8.448;2023-05-14T10:12:33;24.80;99.90
31387;DHT22;69978;50.096;8.448;2023-05-14T10:15:05;24.80;99.90
31387;DHT22;69978;50.096;8.448;2023-05-14T10:17:35;25.60;99.90
31387;DHT22;69978;50.096;8.448;2023-05-14T10:20:02;26.10;99.90
31387;DHT22;69978;50.096;8.448;2023-05-14T10:22:33;25.90;99.90
31387;DHT22;69978;50.096;8.448;2023-05-14T10:25:01;25.40;99.90
31387;DHT22;69978;50.096;8.448;2023-05-14T10:27:27;24.70;99.90
31387;DHT22;69978;50.096;8.448;2023-05-14T10:29:59;24.40;99.90
31387;DHT22;69978;50.096;8.448;2023-05-14T10:32:27;23.90;99.90
31387;DHT22;69978;50.096;8.448;2023-05-14T10:34:57;23.70;99.90
31387;DHT22;69978;50.096;8.448;2023-05-14T10:37:26;23.60;99.90
31387;DHT22;69978;50.096;8.448;2023-05-14T10:40:02;23.50;99.90
31387;DHT22;69978;50.096;8.448;2023-05-14T10:42:35;23.50;99.90
31387;DHT22;69978;50.096;8.448;2023-05-14T10:45:15;23.60;99.90
31387;DHT22;69978;50.096;8.448;2023-05-14T10:47:43;23.80;99.90
31387;DHT22;69978;50.096;8.448;2023-05-14T10:50:11;23.90;99.90
31387;DHT22;69978;50.096;8.448;2023-05-14T10:52:48;23.90;99.90
31387;DHT22;69978;50.096;8.448;2023-05-14T10:55:21;24.00;99.90
31387;DHT22;69978;50.096;8.448;2023-05-14T10:57:51;23.70;99.90
31387;DHT22;69978;50.096;8.448;2023-05-14T11:00:19;23.40;99.90
31387;DHT22;69978;50.096;8.448;2023-05-14T11:02:55;23.10;99.90
31387;DHT22;69978;50.096;8.448;2023-05-14T11:05:24;23.00;99.90
31387;DHT22;69978;50.096;8.448;2023-05-14T11:07:55;23.10;99.90
31387;DHT22;69978;50.096;8.448;2023-05-14T11:10:21;23.20;99.90
31387;DHT22;69978;50.096;8.448;2023-05-14T11:12:50;23.00;99.90
31387;DHT22;69978;50.096;8.448;2023-05-14T11:15:39;23.10;99.90
31387;DHT22;69978;50.096;8.448;2023-05-14T11:18:11;23.50;99.90
31387;DHT22;69978;50.096;8.448;2023-05-14T11:24:11;23.80;99.90
31387;DHT22;69978;50.096;8.448;2023-05-14T11:26:37;23.80;99.90
31387;DHT22;69978;50.096;8.448;2023-05-14T11:29:03;23.80;99.90
31387;DHT22;69978;50.096;8.448;2023-05-14T11:31:29;23.60;99.90
31387;DHT22;69978;50.096;8.448;2023-05-14T11:34:10;23.80;99.90
31387;DHT22;69978;50.096;8.448;2023-05-14T11:36:36;23.90;99.90
31387;DHT22;69978;50.096;8.448;2023-05-14T11:39:07;24.20;99.90
31387;DHT22;69978;50.096;8.448;2023-05-14T11:41:33;24.20;99.90
31387;DHT22;69978;50.096;8.448;2023-05-14T11:43:58;24.50;99.90
31387;DHT22;69978;50.096;8.448;2023-05-14T11:46:24;24.70;99.90
31387;DHT22;69978;50.096;8.448;2023-05-14T11:48:50;25.30;99.90
31387;DHT22;69978;50.096;8.448;2023-05-14T11:51:16;25.80;99.90
31387;DHT22;69978;50.096;8.448;2023-05-14T11:53:41;25.90;99.90
31387;DHT22;69978;50.096;8.448;2023-05-14T11:56:07;25.70;99.90
31387;DHT22;69978;50.096;8.448;2023-05-14T11:58:33;25.60;99.90
31387;DHT22;69978;50.096;8.448;2023-05-14T12:00:58;26.00;99.90
31387;DHT22;69978;50.096;8.448;2023-05-14T12:03:24;25.90;99.90
31387;DHT22;69978;50.096;8.448;2023-05-14T12:06:01;25.80;99.90
31387;DHT22;69978;50.096;8.448;2023-05-14T12:08:27;25.90;99.90
31387;DHT22;69978;50.096;8.448;2023-05-14T12:10:53;26.00;99.90
31387;DHT22;69978;50.096;8.448;2023-05-14T12:13:40;26.00;99.90
31387;DHT22;69978;50.096;8.448;2023-05-14T12:16:06;25.90;99.90
31387;DHT22;69978;50.096;8.448;2023-05-14T12:18:32;26.00;99.90
31387;DHT22;69978;50.096;8.448;2023-05-14T12:21:02;25.80;99.90
31387;DHT22;69978;50.096;8.448;2023-05-14T12:23:29;25.70;99.90
31387;DHT22;69978;50.096;8.448;2023-05-14T12:26:04;26.20;99.90
31387;DHT22;69978;50.096;8.448;2023-05-14T12:28:31;26.40;99.90
31387;DHT22;69978;50.096;8.448;2023-05-14T12:30:58;26.80;99.90
31387;DHT22;69978;50.096;8.448;2023-05-14T12:33:25;27.00;99.90
31387;DHT22;69978;50.096;8.448;2023-05-14T12:35:54;26.90;99.90
31387;DHT22;69978;50.096;8.448;2023-05-14T12:38:26;26.80;99.90
31387;DHT22;69978;50.096;8.448;2023-05-14T12:40:52;27.10;99.90
31387;DHT22;69978;50.096;8.448;2023-05-14T12:43:20;27.30;99.90
31387;DHT22;69978;50.096;8.448;2023-05-14T12:45:48;27.50;99.90
31387;DHT22;69978;50.096;8.448;2023-05-14T12:48:14;27.70;99.90
31387;DHT22;69978;50.096;8.448;2023-05-14T12:50:39;27.50;99.90
31387;DHT22;69978;50.096;8.448;2023-05-14T12:53:05;27.70;99.90
31387;DHT22;69978;50.096;8.448;2023-05-14T12:55:30;27.90;99.90
31387;DHT22;69978;50.096;8.448;2023-05-14T12:57:56;28.30;99.90
31387;DHT22;69978;50.096;8.448;2023-05-14T13:00:22;28.60;99.90
31387;DHT22;69978;50.096;8.448;2023-05-14T13:02:48;28.70;99.90
31387;DHT22;69978;50.096;8.448;2023-05-14T13:05:13;29.10;99.90
31387;DHT22;69978;50.096;8.448;2023-05-14T13:07:39;29.30;99.90
31387;DHT22;69978;50.096;8.448;2023-05-14T13:10:13;29.40;99.90
31387;DHT22;69978;50.096;8.448;2023-05-14T13:12:42;29.30;99.90
31387;DHT22;69978;50.096;8.448;2023-05-14T13:15:08;29.20;99.90
31387;DHT22;69978;50.096;8.448;2023-05-14T13:17:35;29.20;99.90
31387;DHT22;69978;50.096;8.448;2023-05-14T13:20:00;29.40;99.90
31387;DHT22;69978;50.096;8.448;2023-05-14T13:22:26;29.20;99.90
31387;DHT22;69978;50.096;8.448;2023-05-14T13:24:51;29.20;99.90
31387;DHT22;69978;50.096;8.448;2023-05-14T13:27:17;29.10;99.90
31387;DHT22;69978;50.096;8.448;2023-05-14T13:29:42;28.70;99.90
31387;DHT22;69978;50.096;8.448;2023-05-14T13:32:08;28.80;99.90
31387;DHT22;69978;50.096;8.448;2023-05-14T13:34:34;29.10;99.90
31387;DHT22;69978;50.096;8.448;2023-05-14T13:37:00;28.40;99.90
31387;DHT22;69978;50.096;8.448;2023-05-14T13:39:25;28.50;99.90
31387;DHT22;69978;50.096;8.448;2023-05-14T13:41:52;28.60;99.90
31387;DHT22;69978;50.096;8.448;2023-05-14T13:44:20;28.50;99.90
31387;DHT22;69978;50.096;8.448;2023-05-14T13:46:46;28.50;99.90
31387;DHT22;69978;50.096;8.448;2023-05-14T13:49:11;28.60;99.90
31387;DHT22;69978;50.096;8.448;2023-05-14T13:51:37;28.80;99.90
31387;DHT22;69978;50.096;8.448;2023-05-14T13:54:02;28.90;99.90
31387;DHT22;69978;50.096;8.448;2023-05-14T13:56:28;29.00;99.90
31387;DHT22;69978;50.096;8.448;2023-05-14T13:58:54;28.70;99.90
31387;DHT22;69978;50.096;8.448;2023-05-14T14:01:20;28.30;99.90
31387;DHT22;69978;50.096;8.448;2023-05-14T14:03:46;28.40;99.90
31387;DHT22;69978;50.096;8.448;2023-05-14T14:06:11;28.40;99.90
31387;DHT22;69978;50.096;8.448;2023-05-14T14:08:37;28.10;99.90
31387;DHT22;69978;50.096;8.448;2023-05-14T14:11:02;28.30;99.90
31387;DHT22;69978;50.096;8.448;2023-05-14T14:13:28;28.20;99.90
31387;DHT22;69978;50.096;8.448;2023-05-14T14:15:54;28.20;99.90
31387;DHT22;69978;50.096;8.448;2023-05-14T14:18:19;28.10;99.90
31387;DHT22;69978;50.096;8.448;2023-05-14T14:20:45;27.90;99.90
31387;DHT22;69978;50.096;8.448;2023-05-14T14:23:11;27.70;99.90
31387;DHT22;69978;50.096;8.448;2023-05-14T14:25:36;27.40;99.90
31387;DHT22;69978;50.096;8.448;2023-05-14T14:28:02;27.30;99.90
31387;DHT22;69978;50.096;8.448;2023-05-14T14:30:28;27.20;99.90
31387;DHT22;69978;50.096;8.448;2023-05-14T14:32:53;27.00;99.90
31387;DHT22;69978;50.096;8.448;2023-05-14T14:35:19;26.70;99.90
31387;DHT22;69978;50.096;8.448;2023-05-14T14:37:45;26.50;99.90
31387;DHT22;69978;50.096;8.448;2023-05-14T14:40:15;26.20;99.90
31387;DHT22;69978;50.096;8.448;2023-05-14T14:42:41;26.10;99.90
31387;DHT22;69978;50.096;8.448;2023-05-14T14:45:07;26.00;99.90
31387;DHT22;69978;50.096;8.448;2023-05-14T14:47:33;25.80;99.90
31387;DHT22;69978;50.096;8.448;2023-05-14T14:49:59;25.80;99.90
31387;DHT22;69978;50.096;8.448;2023-05-14T14:52:25;25.70;99.90
31387;DHT22;69978;50.096;8.448;2023-05-14T14:54:52;25.30;99.90
31387;DHT22;69978;50.096;8.448;2023-05-14T14:57:17;25.20;99.90
31387;DHT22;69978;50.096;8.448;2023-05-14T14:59:43;25.10;99.90
31387;DHT22;69978;50.096;8.448;2023-05-14T15:02:09;24.90;99.90
31387;DHT22;69978;50.096;8.448;2023-05-14T15:04:35;24.80;99.90
31387;DHT22;69978;50.096;8.448;2023-05-14T15:07:02;24.70;99.90
31387;DHT22;69978;50.096;8.448;2023-05-14T15:09:28;24.60;99.90
31387;DHT22;69978;50.096;8.448;2023-05-14T15:11:53;24.50;99.90
31387;DHT22;69978;50.096;8.448;2023-05-14T15:14:19;24.30;99.90
31387;DHT22;69978;50.096;8.448;2023-05-14T15:16:45;24.20;99.90
31387;DHT22;69978;50.096;8.448;2023-05-14T15:19:10;24.10;99.90
31387;DHT22;69978;50.096;8.448;2023-05-14T15:21:36;24.00;99.90
31387;DHT22;69978;50.096;8.448;2023-05-14T15:24:05;23.90;99.90
31387;DHT22;69978;50.096;8.448;2023-05-14T15:26:30;23.90;99.90
31387;DHT22;69978;50.096;8.448;2023-05-14T15:28:58;23.80;99.90
31387;DHT22;69978;50.096;8.448;2023-05-14T15:31:23;23.60;99.90
31387;DHT22;69978;50.096;8.448;2023-05-14T15:33:50;23.40;99.90
31387;DHT22;69978;50.096;8.448;2023-05-14T15:36:16;23.30;99.90
31387;DHT22;69978;50.096;8.448;2023-05-14T15:38:42;23.30;99.90